Terminal Aerodrome Forecast
Issued by NWS

Home | Current Version | Previous Version | Text Only | Print | Product List | Glossary On
Versions: 1 2 3 4 5 6 7 8 9 10 11 12 13 14 15 16 17 18 19 20 21 22 23 24 25 26 27 28
806
FTAK31 PANC 302340
TAFADU
TAF
PADU 302340Z 3100/3124 20010KT P6SM VCSH SCT015 BKN025
     FM310600 22010KT 5SM -RA BR SCT007 OVC015
     FM311200 22010KT 4SM -RA BR BKN007 OVC015
     FM311800 23010KT 6SM BR VCSH BKN007 OVC010=

USA.gov is the U.S. government's official web portal to all federal, state and local government web resources and services.